Time;durP1;ratioP1;P1;durP2;ratioP2;P2;SDS_P1;SDS_P2;PMS_P1;PMS_P2;Temp;Humidity;BMP_temperature;BMP_pressure;BME280_temperature;BME280_humidity;BME280_pressure;Samples;Min_cycle;Max_cycle;Signal;HPM_P1;HPM_P2
2023/08/26 00:01:14;;;;;;;2.40;1.60;;;18.00;99.90;;;;;;5049827;28;20068;-40
2023/08/26 00:03:39;;;;;;;2.92;1.52;;;18.00;99.90;;;;;;5050664;28;20104;-40
2023/08/26 00:06:05;;;;;;;4.97;2.00;;;18.00;99.90;;;;;;5049575;28;20025;-40
2023/08/26 00:08:31;;;;;;;4.72;1.65;;;17.90;99.90;;;;;;5048370;28;20029;-39
2023/08/26 00:10:56;;;;;;;1.50;1.40;;;17.90;99.90;;;;;;5053397;28;20029;-42
2023/08/26 00:13:22;;;;;;;2.40;1.45;;;17.90;99.90;;;;;;5053623;28;20604;-39
2023/08/26 00:15:48;;;;;;;4.10;1.70;;;17.90;99.90;;;;;;5053537;28;20032;-41
2023/08/26 00:18:14;;;;;;;2.38;1.30;;;17.90;99.90;;;;;;5052859;28;20052;-40
2023/08/26 00:20:40;;;;;;;4.82;1.40;;;17.90;99.90;;;;;;5053047;28;20025;-39
2023/08/26 00:23:06;;;;;;;2.10;1.40;;;17.90;99.90;;;;;;5053176;28;20342;-39
2023/08/26 00:25:32;;;;;;;2.00;1.60;;;17.90;99.90;;;;;;5052870;28;20029;-39
2023/08/26 00:27:57;;;;;;;5.55;1.67;;;17.90;99.90;;;;;;5051762;28;20028;-38
2023/08/26 00:30:24;;;;;;;3.90;1.73;;;17.90;99.90;;;;;;5046834;28;20386;-44
2023/08/26 00:32:50;;;;;;;3.88;1.58;;;17.90;99.90;;;;;;5050116;28;20079;-41
2023/08/26 00:35:16;;;;;;;2.05;1.30;;;17.90;99.90;;;;;;5046668;28;20067;-38
2023/08/26 00:37:42;;;;;;;2.60;1.75;;;17.90;99.90;;;;;;5052882;28;20088;-42
2023/08/26 00:40:08;;;;;;;7.75;1.42;;;17.90;99.90;;;;;;5052865;28;20029;-38
2023/08/26 00:42:37;;;;;;;5.22;2.70;;;18.00;99.90;;;;;;5046505;28;20040;-41
2023/08/26 00:45:06;;;;;;;2.13;1.70;;;18.00;99.90;;;;;;5052103;28;20469;-42
2023/08/26 00:47:32;;;;;;;2.22;1.60;;;18.00;99.90;;;;;;5047914;28;20028;-41
2023/08/26 00:49:58;;;;;;;2.63;1.42;;;18.10;99.90;;;;;;5052805;28;20029;-40
2023/08/26 00:52:24;;;;;;;3.50;1.90;;;18.10;99.90;;;;;;5052304;28;20436;-42
2023/08/26 00:54:50;;;;;;;5.72;1.80;;;18.10;99.90;;;;;;5052544;28;20028;-40
2023/08/26 00:57:16;;;;;;;2.08;1.45;;;18.10;99.90;;;;;;5052556;28;20032;-40
2023/08/26 00:59:42;;;;;;;2.70;1.27;;;18.10;99.90;;;;;;5051268;28;20025;-41
2023/08/26 01:02:08;;;;;;;5.55;1.70;;;18.10;99.90;;;;;;5052637;28;20025;-42
2023/08/26 01:04:34;;;;;;;3.17;1.95;;;18.10;99.90;;;;;;5052276;28;20094;-41
2023/08/26 01:07:00;;;;;;;2.63;1.90;;;18.00;99.90;;;;;;5052196;28;20120;-39
2023/08/26 01:09:26;;;;;;;2.80;2.13;;;18.00;99.90;;;;;;5033644;28;20520;-39
2023/08/26 01:12:10;;;;;;;4.70;2.13;;;18.00;99.90;;;;;;5052607;28;20033;-39
2023/08/26 01:15:04;;;;;;;4.85;2.30;;;18.00;99.90;;;;;;5052681;28;20033;-42
2023/08/26 01:17:30;;;;;;;7.18;2.65;;;18.00;99.90;;;;;;5051979;28;20094;-41
2023/08/26 01:19:58;;;;;;;5.00;2.78;;;18.00;99.90;;;;;;5052755;28;20481;-40
2023/08/26 01:22:27;;;;;;;6.88;2.55;;;18.00;99.90;;;;;;5052787;28;20535;-42
2023/08/26 01:24:53;;;;;;;8.60;3.40;;;18.00;99.90;;;;;;5051211;28;20041;-45
2023/08/26 01:27:18;;;;;;;8.90;3.15;;;18.00;99.90;;;;;;5034995;28;20021;-42
2023/08/26 01:29:44;;;;;;;4.88;3.05;;;17.90;99.90;;;;;;5052405;28;20025;-38
2023/08/26 01:32:15;;;;;;;3.92;2.50;;;17.80;99.90;;;;;;5052281;28;20017;-42
2023/08/26 01:34:42;;;;;;;6.85;2.90;;;17.70;99.90;;;;;;5052346;28;20066;-38
2023/08/26 01:37:10;;;;;;;7.70;3.13;;;17.60;99.90;;;;;;5052241;28;20116;-40
2023/08/26 01:39:37;;;;;;;5.38;2.80;;;17.60;99.90;;;;;;5034559;28;20539;-41
2023/08/26 01:42:06;;;;;;;4.90;3.10;;;17.50;99.90;;;;;;5030906;28;20022;-43
2023/08/26 01:44:32;;;;;;;3.90;3.28;;;17.50;99.90;;;;;;5032483;28;20433;-42
2023/08/26 01:46:58;;;;;;;9.00;3.13;;;17.50;99.90;;;;;;5032537;28;20036;-39
2023/08/26 01:49:23;;;;;;;13.68;2.53;;;17.40;99.90;;;;;;5031979;28;20466;-40
2023/08/26 01:51:49;;;;;;;5.78;1.90;;;17.40;99.90;;;;;;5029800;28;20567;-41
2023/08/26 01:54:15;;;;;;;6.93;2.20;;;17.40;99.90;;;;;;5044825;28;20029;-42
2023/08/26 01:56:40;;;;;;;4.22;2.15;;;17.30;99.90;;;;;;5049545;28;20397;-39
2023/08/26 01:59:06;;;;;;;5.10;2.22;;;17.40;99.90;;;;;;5046206;28;20470;-42
2023/08/26 02:01:33;;;;;;;7.10;2.45;;;17.30;99.90;;;;;;5052098;28;20025;-41
2023/08/26 02:04:00;;;;;;;9.18;2.78;;;17.30;99.90;;;;;;5051789;28;20017;-39
2023/08/26 02:06:26;;;;;;;5.83;2.40;;;17.30;99.90;;;;;;5052439;28;20094;-44
2023/08/26 02:08:54;;;;;;;11.38;3.47;;;17.30;99.90;;;;;;5055788;28;20029;-40
2023/08/26 02:11:19;;;;;;;;;;;17.20;99.90;;;;;;5056129;28;20104;-45
2023/08/26 02:13:45;;;;;;;6.22;2.90;;;17.20;99.90;;;;;;5055706;28;19948;-41
2023/08/26 02:16:10;;;;;;;8.55;2.92;;;17.20;99.90;;;;;;5050838;28;20474;-39
2023/08/26 02:18:36;;;;;;;6.53;2.13;;;17.20;99.90;;;;;;5035613;28;20473;-43
2023/08/26 02:21:02;;;;;;;7.22;3.38;;;17.10;99.90;;;;;;5035663;28;20029;-41
2023/08/26 02:23:27;;;;;;;3.15;2.10;;;17.10;99.90;;;;;;5045298;28;20029;-44
2023/08/26 02:25:53;;;;;;;8.98;2.38;;;17.10;99.90;;;;;;5055576;28;20025;-39
2023/08/26 02:28:18;;;;;;;6.25;2.80;;;17.00;99.90;;;;;;5055612;28;20013;-41
2023/08/26 02:30:44;;;;;;;11.45;3.15;;;17.00;99.90;;;;;;5055423;28;20024;-41
2023/08/26 02:33:10;;;;;;;7.07;2.95;;;17.00;99.90;;;;;;5054420;28;20021;-41
2023/08/26 02:35:35;;;;;;;10.13;3.05;;;17.00;99.90;;;;;;5055258;28;20398;-43
2023/08/26 02:38:01;;;;;;;7.57;2.83;;;16.90;99.90;;;;;;5055025;28;20041;-43
2023/08/26 02:40:27;;;;;;;9.70;3.15;;;16.90;99.90;;;;;;5055324;28;20140;-40
2023/08/26 02:42:52;;;;;;;6.32;2.88;;;16.80;99.90;;;;;;5037385;28;20473;-41
2023/08/26 02:45:18;;;;;;;5.45;2.20;;;16.80;99.90;;;;;;5055324;28;20416;-40
2023/08/26 02:47:44;;;;;;;4.65;2.60;;;16.80;99.90;;;;;;5055090;28;20025;-39
2023/08/26 02:50:10;;;;;;;7.75;2.50;;;16.80;99.90;;;;;;5050625;28;20032;-41
2023/08/26 02:52:35;;;;;;;4.50;2.60;;;16.70;99.90;;;;;;5034966;28;20022;-40
2023/08/26 02:55:01;;;;;;;4.32;3.13;;;16.70;99.90;;;;;;5035049;28;20030;-42
2023/08/26 02:57:27;;;;;;;3.70;2.78;;;16.70;99.90;;;;;;5044575;28;20103;-41
2023/08/26 02:59:52;;;;;;;7.82;2.90;;;16.60;99.90;;;;;;5055432;28;20021;-40
2023/08/26 03:02:21;;;;;;;4.97;2.40;;;16.60;99.90;;;;;;5035015;28;20032;-42
2023/08/26 03:04:46;;;;;;;8.95;2.53;;;16.60;99.90;;;;;;5053435;28;20079;-40
2023/08/26 03:07:12;;;;;;;7.75;2.50;;;16.60;99.90;;;;;;5046829;28;20021;-42
2023/08/26 03:09:38;;;;;;;7.40;2.13;;;16.50;99.90;;;;;;5047188;28;20486;-43
2023/08/26 03:12:03;;;;;;;8.40;2.58;;;16.50;99.90;;;;;;5053654;28;20017;-41
2023/08/26 03:14:29;;;;;;;4.65;2.22;;;16.50;99.90;;;;;;5050226;28;20078;-38
2023/08/26 03:16:55;;;;;;;7.53;2.47;;;16.50;99.90;;;;;;5054529;28;20095;-41
2023/08/26 03:19:21;;;;;;;3.10;2.65;;;16.50;99.90;;;;;;5053303;28;20367;-43
2023/08/26 03:21:47;;;;;;;4.05;2.40;;;16.50;99.90;;;;;;5054460;28;20537;-38
2023/08/26 03:24:18;;;;;;;7.07;2.38;;;16.50;99.90;;;;;;5053301;28;20056;-39
2023/08/26 03:26:44;;;;;;;11.05;3.15;;;16.50;99.90;;;;;;5054342;28;20055;-40
2023/08/26 03:29:09;;;;;;;4.68;2.83;;;16.50;99.90;;;;;;5054301;28;20040;-43
2023/08/26 03:31:35;;;;;;;5.32;2.30;;;16.50;99.90;;;;;;5054286;28;20382;-42
2023/08/26 03:34:01;;;;;;;3.05;2.55;;;16.50;99.90;;;;;;5054179;28;20044;-41
2023/08/26 03:36:27;;;;;;;5.53;2.53;;;16.50;99.90;;;;;;5053626;28;20040;-44
2023/08/26 03:38:55;;;;;;;6.18;2.60;;;16.50;99.90;;;;;;5054200;28;20084;-42
2023/08/26 03:41:20;;;;;;;5.80;2.63;;;16.50;99.90;;;;;;5053606;28;20053;-40
2023/08/26 03:43:46;;;;;;;11.07;3.00;;;16.40;99.90;;;;;;5054271;28;20071;-43
2023/08/26 03:46:12;;;;;;;7.18;2.83;;;16.40;99.90;;;;;;5052436;28;20037;-41
2023/08/26 03:48:38;;;;;;;5.07;2.97;;;16.40;99.90;;;;;;5052709;28;20031;-40
2023/08/26 03:51:03;;;;;;;4.10;2.50;;;16.40;99.90;;;;;;5052246;28;20024;-39
2023/08/26 03:53:29;;;;;;;5.85;2.40;;;16.40;99.90;;;;;;5052522;28;20029;-40
2023/08/26 03:55:55;;;;;;;7.82;2.42;;;16.30;99.90;;;;;;5035798;28;20037;-40
2023/08/26 03:58:20;;;;;;;3.95;2.60;;;16.30;99.90;;;;;;5052477;28;20367;-42
2023/08/26 04:00:46;;;;;;;6.57;2.55;;;16.30;99.90;;;;;;5053731;28;20033;-39
2023/08/26 04:03:12;;;;;;;4.35;2.55;;;16.20;99.90;;;;;;5052696;28;20098;-44
2023/08/26 04:05:37;;;;;;;5.38;2.70;;;16.20;99.90;;;;;;5050283;28;20031;-43
2023/08/26 04:08:03;;;;;;;8.75;2.80;;;16.20;99.90;;;;;;5051046;28;20074;-41
2023/08/26 04:10:29;;;;;;;7.50;2.92;;;16.20;99.90;;;;;;5034957;28;20089;-38
2023/08/26 04:13:01;;;;;;;4.43;2.72;;;16.10;99.90;;;;;;5052980;28;20462;-40
2023/08/26 04:15:27;;;;;;;10.27;3.05;;;16.10;99.90;;;;;;5052056;28;20060;-39
2023/08/26 04:17:52;;;;;;;2.45;2.25;;;16.10;99.90;;;;;;5051839;28;20052;-40
2023/08/26 04:20:18;;;;;;;7.22;2.28;;;16.10;99.90;;;;;;5052814;28;20028;-39
2023/08/26 04:22:44;;;;;;;5.97;2.25;;;16.10;99.90;;;;;;5050492;28;20067;-40
2023/08/26 04:25:09;;;;;;;4.55;2.55;;;16.10;99.90;;;;;;5051025;28;20033;-44
2023/08/26 04:27:35;;;;;;;5.18;2.70;;;16.10;99.90;;;;;;5052526;28;20112;-43
2023/08/26 04:30:01;;;;;;;9.57;2.95;;;16.10;99.90;;;;;;5051387;28;20021;-40
2023/08/26 04:32:27;;;;;;;12.35;2.58;;;16.00;99.90;;;;;;5051472;28;20044;-42
2023/08/26 04:34:52;;;;;;;13.05;2.70;;;16.00;99.90;;;;;;5051391;28;20025;-42
2023/08/26 04:37:20;;;;;;;7.35;3.10;;;16.00;99.90;;;;;;5050475;28;20448;-39
2023/08/26 04:39:46;;;;;;;2.40;2.20;;;16.00;99.90;;;;;;5052073;28;20496;-38
2023/08/26 04:42:12;;;;;;;6.45;2.67;;;16.00;99.90;;;;;;5052283;28;20021;-42
2023/08/26 04:44:38;;;;;;;6.88;2.40;;;16.00;99.90;;;;;;5051263;28;20017;-43
2023/08/26 04:47:04;;;;;;;5.05;2.80;;;16.00;99.90;;;;;;5040483;28;20029;-47
2023/08/26 04:49:31;;;;;;;4.78;2.90;;;15.90;99.90;;;;;;5053012;28;20021;-40
2023/08/26 04:51:57;;;;;;;3.85;2.67;;;15.90;99.90;;;;;;5052086;28;20017;-42
2023/08/26 04:54:23;;;;;;;7.60;2.20;;;15.90;99.90;;;;;;5051902;28;20029;-42
2023/08/26 04:56:48;;;;;;;11.73;2.30;;;15.90;99.90;;;;;;5051968;28;20029;-40
2023/08/26 04:59:14;;;;;;;6.28;2.67;;;15.90;99.90;;;;;;5034898;28;20083;-40
2023/08/26 05:01:40;;;;;;;8.73;2.17;;;15.90;99.90;;;;;;5051782;28;20472;-41
2023/08/26 05:04:06;;;;;;;8.52;3.05;;;15.90;99.90;;;;;;5052632;28;20112;-39
2023/08/26 05:06:31;;;;;;;6.07;2.95;;;15.90;99.90;;;;;;5052416;28;20393;-43
2023/08/26 05:08:57;;;;;;;7.10;2.83;;;15.90;99.90;;;;;;5050999;28;20424;-42
2023/08/26 05:11:23;;;;;;;3.92;3.08;;;15.80;99.90;;;;;;5051703;28;20436;-39
2023/08/26 05:13:48;;;;;;;10.10;2.30;;;15.70;99.90;;;;;;5051169;28;20021;-38
2023/08/26 05:16:14;;;;;;;11.95;2.47;;;15.70;99.90;;;;;;5052601;28;20036;-38
2023/08/26 05:18:39;;;;;;;7.85;2.05;;;15.70;99.90;;;;;;5051569;28;20532;-42
2023/08/26 05:21:05;;;;;;;6.00;2.13;;;15.70;99.90;;;;;;5052539;28;20044;-39
2023/08/26 05:23:32;;;;;;;4.78;2.00;;;15.70;99.90;;;;;;5051539;28;20036;-45
2023/08/26 05:25:57;;;;;;;6.18;2.55;;;15.80;99.90;;;;;;5051331;28;20031;-42
2023/08/26 05:28:23;;;;;;;10.85;2.97;;;15.80;99.90;;;;;;5052515;28;20474;-39
2023/08/26 05:30:49;;;;;;;7.03;2.17;;;15.80;99.90;;;;;;5052307;28;20021;-41
2023/08/26 05:33:14;;;;;;;10.85;2.63;;;15.80;99.90;;;;;;5051389;28;20061;-41
2023/08/26 05:35:40;;;;;;;8.60;2.47;;;15.80;99.90;;;;;;5051330;28;20082;-43
2023/08/26 05:38:05;;;;;;;5.10;2.15;;;15.80;99.90;;;;;;5049404;28;20037;-43
2023/08/26 05:40:32;;;;;;;3.20;2.33;;;15.90;99.90;;;;;;5052315;28;20060;-42
2023/08/26 05:42:58;;;;;;;2.83;2.22;;;15.80;99.90;;;;;;5054945;28;20088;-40
2023/08/26 05:45:25;;;;;;;5.45;2.45;;;15.90;99.90;;;;;;5055230;28;20384;-43
2023/08/26 05:47:54;;;;;;;3.92;2.13;;;15.90;99.90;;;;;;5055157;28;20029;-43
2023/08/26 05:50:20;;;;;;;4.18;2.28;;;15.90;99.90;;;;;;5054575;28;20020;-39
2023/08/26 05:52:45;;;;;;;13.57;3.80;;;15.90;99.90;;;;;;5054069;28;20389;-38
2023/08/26 05:55:12;;;;;;;5.00;2.13;;;16.00;99.90;;;;;;5055244;28;20178;-40
2023/08/26 05:57:38;;;;;;;4.80;2.00;;;16.00;99.90;;;;;;5055202;28;20025;-42
2023/08/26 06:00:07;;;;;;;7.70;3.03;;;16.00;99.90;;;;;;5056158;28;20032;-40
2023/08/26 06:02:33;;;;;;;4.93;2.22;;;16.00;99.90;;;;;;5053845;28;20036;-42
2023/08/26 06:04:59;;;;;;;8.32;2.25;;;16.10;99.90;;;;;;5054817;28;20025;-39
2023/08/26 06:07:25;;;;;;;4.88;2.40;;;16.10;99.90;;;;;;5055699;28;20036;-38
2023/08/26 06:09:51;;;;;;;4.55;2.20;;;16.10;99.90;;;;;;5054716;28;20100;-40
2023/08/26 06:12:16;;;;;;;5.07;2.17;;;16.20;99.90;;;;;;5052938;28;20028;-39
2023/08/26 06:14:42;;;;;;;7.47;2.60;;;16.20;99.90;;;;;;5037888;28;20115;-50
2023/08/26 06:17:08;;;;;;;6.50;2.47;;;16.20;99.90;;;;;;5055543;28;20025;-51
2023/08/26 06:19:33;;;;;;;3.33;2.17;;;16.20;99.90;;;;;;5055643;28;20095;-52
2023/08/26 06:21:59;;;;;;;8.73;2.33;;;16.30;99.90;;;;;;5054267;28;20040;-46
2023/08/26 06:24:26;;;;;;;3.47;2.75;;;16.30;99.90;;;;;;5055788;28;20033;-48
2023/08/26 06:26:52;;;;;;;9.30;2.35;;;16.40;99.90;;;;;;5055441;28;20494;-51
2023/08/26 06:29:19;;;;;;;5.40;2.28;;;16.40;99.90;;;;;;5055654;28;20060;-48
2023/08/26 06:31:45;;;;;;;4.63;2.40;;;16.50;99.90;;;;;;5054381;28;20478;-51
2023/08/26 06:34:10;;;;;;;6.05;1.95;;;16.50;99.90;;;;;;5054551;28;20108;-48
2023/08/26 06:36:36;;;;;;;6.78;2.30;;;16.60;99.90;;;;;;5055036;28;20128;-51
2023/08/26 06:39:03;;;;;;;4.45;2.45;;;16.60;99.90;;;;;;5054150;28;20535;-52
2023/08/26 06:41:30;;;;;;;4.82;2.60;;;16.70;99.90;;;;;;5055495;28;20021;-50
2023/08/26 06:43:55;;;;;;;9.57;2.67;;;16.70;99.90;;;;;;5053808;28;20040;-51
2023/08/26 06:46:21;;;;;;;11.88;3.28;;;16.80;99.90;;;;;;5055337;28;20037;-49
2023/08/26 06:48:47;;;;;;;8.40;2.17;;;16.80;99.90;;;;;;5053548;28;20095;-51
2023/08/26 06:51:12;;;;;;;7.60;2.17;;;16.90;99.90;;;;;;5054962;28;20438;-51
2023/08/26 06:53:38;;;;;;;6.80;2.50;;;16.90;99.90;;;;;;5054780;28;20075;-52
2023/08/26 06:56:04;;;;;;;5.93;2.60;;;17.00;99.90;;;;;;5054843;28;20478;-51
2023/08/26 06:58:29;;;;;;;3.67;2.08;;;17.10;99.90;;;;;;5036731;28;20029;-51
2023/08/26 07:00:55;;;;;;;12.63;2.90;;;17.10;99.90;;;;;;5054574;28;20036;-52
2023/08/26 07:03:21;;;;;;;8.70;2.60;;;17.20;99.90;;;;;;5054797;28;20489;-49
2023/08/26 07:05:47;;;;;;;4.70;2.38;;;17.30;99.90;;;;;;5054165;28;20420;-52
2023/08/26 07:08:13;;;;;;;2.58;2.35;;;17.30;99.90;;;;;;5054891;28;20481;-51
2023/08/26 07:10:40;;;;;;;6.93;3.38;;;17.40;99.90;;;;;;5053364;28;20056;-51
2023/08/26 07:13:06;;;;;;;6.75;2.45;;;17.50;99.90;;;;;;5051259;28;20032;-48
2023/08/26 07:15:31;;;;;;;5.80;2.35;;;17.60;99.90;;;;;;5053261;28;20067;-52
2023/08/26 07:17:57;;;;;;;4.00;2.25;;;17.60;99.90;;;;;;5053355;28;20393;-49
2023/08/26 07:20:24;;;;;;;7.32;2.67;;;17.60;99.90;;;;;;5053099;28;20424;-49
2023/08/26 07:22:50;;;;;;;6.85;2.60;;;17.60;99.90;;;;;;5050535;28;20037;-50
2023/08/26 07:25:17;;;;;;;2.60;2.40;;;17.80;99.90;;;;;;5054274;28;20029;-51
2023/08/26 07:27:43;;;;;;;6.53;2.78;;;17.90;99.90;;;;;;5054545;28;20021;-50
2023/08/26 07:30:09;;;;;;;3.30;2.30;;;18.10;99.90;;;;;;5054180;28;20022;-51
2023/08/26 07:32:35;;;;;;;9.20;2.38;;;18.10;99.90;;;;;;5054345;28;20017;-43
2023/08/26 07:35:01;;;;;;;4.32;2.20;;;18.20;99.90;;;;;;5052845;28;20035;-39
2023/08/26 07:37:29;;;;;;;7.38;2.08;;;18.20;99.90;;;;;;5043993;28;20045;-41
2023/08/26 07:39:55;;;;;;;6.65;2.15;;;18.20;99.90;;;;;;5050781;28;20032;-43
2023/08/26 07:42:20;;;;;;;4.25;2.00;;;18.10;99.90;;;;;;5053983;28;20517;-39
2023/08/26 07:44:46;;;;;;;4.93;2.25;;;18.00;99.90;;;;;;5054172;28;20533;-40
2023/08/26 07:47:12;;;;;;;3.85;2.47;;;17.90;99.90;;;;;;5053723;28;20395;-41
2023/08/26 07:49:37;;;;;;;6.10;2.25;;;17.90;99.90;;;;;;5053945;28;20112;-44
2023/08/26 07:52:03;;;;;;;3.92;2.45;;;17.90;99.90;;;;;;5052162;28;20040;-41
2023/08/26 07:54:29;;;;;;;3.05;2.20;;;18.00;99.90;;;;;;5054115;28;20048;-53
2023/08/26 07:56:55;;;;;;;3.33;2.42;;;18.00;99.90;;;;;;5042445;28;20075;-43
2023/08/26 07:59:20;;;;;;;9.88;2.70;;;18.00;99.90;;;;;;5033736;28;20034;-41
2023/08/26 08:01:47;;;;;;;4.22;2.22;;;18.10;99.90;;;;;;5033998;28;20025;-46
2023/08/26 08:04:13;;;;;;;5.70;1.70;;;18.40;99.90;;;;;;5048801;28;20081;-43
2023/08/26 08:06:39;;;;;;;6.38;2.10;;;18.60;99.90;;;;;;5053525;28;20025;-41
2023/08/26 08:09:04;;;;;;;2.50;2.20;;;18.90;99.90;;;;;;5053812;28;20436;-42
2023/08/26 08:11:30;;;;;;;4.43;2.15;;;19.00;99.90;;;;;;5053524;28;20055;-40
2023/08/26 08:13:56;;;;;;;2.25;1.48;;;19.00;99.90;;;;;;5053245;28;20500;-41
2023/08/26 08:16:21;;;;;;;1.98;1.85;;;19.10;99.90;;;;;;5053662;28;20477;-42
2023/08/26 08:18:47;;;;;;;3.33;1.42;;;19.30;99.90;;;;;;5053651;28;20029;-41
2023/08/26 08:21:13;;;;;;;5.25;1.70;;;19.40;99.90;;;;;;5053162;28;20078;-41
2023/08/26 08:23:40;;;;;;;8.68;1.80;;;19.50;99.90;;;;;;5053150;28;20072;-44
2023/08/26 08:26:06;;;;;;;3.35;1.63;;;19.60;99.90;;;;;;5052993;28;20501;-39
2023/08/26 08:28:32;;;;;;;7.13;1.95;;;19.70;99.90;;;;;;5035601;28;20051;-38
2023/08/26 08:30:58;;;;;;;9.80;1.80;;;19.80;99.90;;;;;;5052429;28;20025;-41
2023/08/26 08:33:24;;;;;;;4.22;1.50;;;19.90;99.90;;;;;;5053264;28;20052;-40
2023/08/26 08:35:50;;;;;;;1.25;1.15;;;20.00;99.90;;;;;;5053074;28;20053;-42
2023/08/26 08:38:16;;;;;;;5.47;1.30;;;20.20;99.90;;;;;;5052455;28;20052;-36
2023/08/26 08:40:42;;;;;;;5.93;1.65;;;20.30;99.90;;;;;;5052839;28;20033;-37
2023/08/26 08:43:08;;;;;;;2.72;1.38;;;20.20;99.90;;;;;;5047081;28;20037;-45
2023/08/26 08:45:34;;;;;;;4.93;1.58;;;20.20;99.90;;;;;;5029585;28;20040;-40
2023/08/26 08:48:00;;;;;;;4.10;2.00;;;20.10;99.90;;;;;;5046691;28;20029;-38
2023/08/26 08:50:26;;;;;;;3.72;1.73;;;20.20;99.90;;;;;;5031798;28;20021;-42
2023/08/26 08:52:56;;;;;;;1.95;1.17;;;20.20;99.90;;;;;;5052431;28;20021;-41
2023/08/26 08:55:22;;;;;;;3.00;1.30;;;20.30;99.90;;;;;;5051054;28;20079;-40
2023/08/26 08:57:51;;;;;;;1.92;1.10;;;20.40;99.90;;;;;;5035427;28;20565;-42
2023/08/26 09:00:19;;;;;;;1.98;1.10;;;20.40;99.90;;;;;;5052763;28;20548;-51
2023/08/26 09:02:47;;;;;;;5.85;1.10;;;20.40;99.90;;;;;;5052785;28;20396;-52
2023/08/26 09:05:13;;;;;;;2.80;1.42;;;20.50;99.90;;;;;;5047920;28;20037;-48
2023/08/26 09:07:42;;;;;;;1.98;1.70;;;20.70;99.90;;;;;;5051262;28;20538;-48
2023/08/26 09:10:11;;;;;;;1.48;1.27;;;20.70;99.90;;;;;;5049877;28;20017;-51
2023/08/26 09:12:37;;;;;;;4.70;1.88;;;20.60;99.90;;;;;;5051554;28;20036;-45
2023/08/26 09:15:04;;;;;;;3.50;2.03;;;20.40;99.90;;;;;;5050416;28;20060;-43
2023/08/26 09:17:30;;;;;;;3.00;2.70;;;20.40;99.90;;;;;;5054934;28;20052;-41
2023/08/26 09:20:00;;;;;;;10.93;2.15;;;20.20;99.90;;;;;;5056055;28;20057;-50
2023/08/26 09:22:27;;;;;;;2.45;2.03;;;20.30;99.90;;;;;;5055943;28;20032;-51
2023/08/26 09:24:55;;;;;;;6.82;3.47;;;20.30;99.90;;;;;;5054887;28;20524;-50
2023/08/26 09:27:20;;;;;;;4.60;2.80;;;20.60;99.90;;;;;;5055845;28;20111;-50
2023/08/26 09:29:46;;;;;;;4.22;2.22;;;21.00;99.90;;;;;;5054288;28;20113;-49
2023/08/26 09:32:12;;;;;;;4.15;2.60;;;21.20;99.90;;;;;;5056502;28;20044;-52
2023/08/26 09:34:38;;;;;;;2.45;2.22;;;21.50;99.90;;;;;;5055659;28;20486;-52
2023/08/26 09:37:06;;;;;;;3.45;2.28;;;21.70;99.90;;;;;;5054368;28;20160;-47
2023/08/26 09:39:32;;;;;;;1.80;1.70;;;21.80;99.90;;;;;;5046111;28;20044;-51
2023/08/26 09:41:59;;;;;;;4.25;2.08;;;21.80;99.90;;;;;;5052497;28;20401;-48
2023/08/26 09:44:26;;;;;;;2.10;1.98;;;21.70;99.90;;;;;;5053448;28;20056;-50
2023/08/26 09:46:54;;;;;;;;;;;21.50;99.90;;;;;;5051324;28;20040;-51
2023/08/26 09:49:20;;;;;;;3.67;2.40;;;21.20;99.90;;;;;;5049073;28;20365;-53
2023/08/26 09:51:51;;;;;;;3.78;2.00;;;21.20;99.90;;;;;;5056072;28;20035;-50
2023/08/26 09:54:24;;;;;;;2.10;1.95;;;21.00;99.90;;;;;;5038205;28;20049;-51
2023/08/26 09:56:50;;;;;;;6.55;2.40;;;20.80;99.90;;;;;;5052851;28;20052;-48
2023/08/26 09:59:17;;;;;;;7.20;2.35;;;20.60;99.90;;;;;;5051119;28;20028;-45
2023/08/26 10:01:42;;;;;;;2.78;2.58;;;20.80;99.90;;;;;;5033465;28;20066;-47
2023/08/26 10:04:09;;;;;;;8.27;2.92;;;21.20;99.90;;;;;;5043955;28;20387;-51
2023/08/26 10:06:53;;;;;;;2.63;1.75;;;21.40;99.90;;;;;;5049951;28;20025;-47
2023/08/26 10:09:48;;;;;;;3.08;2.17;;;21.50;99.90;;;;;;5054566;28;20024;-50
2023/08/26 10:12:24;;;;;;;2.97;1.60;;;21.10;99.90;;;;;;5055114;28;20013;-52
2023/08/26 10:14:53;;;;;;;2.40;1.33;;;21.10;99.90;;;;;;5053489;28;20424;-51
2023/08/26 10:17:20;;;;;;;2.35;1.70;;;21.30;99.90;;;;;;5055760;28;20033;-47
2023/08/26 10:19:47;;;;;;;2.45;1.58;;;21.20;99.90;;;;;;5054046;28;20021;-49
2023/08/26 10:22:14;;;;;;;2.15;1.50;;;21.00;99.90;;;;;;5055082;28;20540;-48
2023/08/26 10:24:40;;;;;;;1.70;1.60;;;20.80;99.90;;;;;;5053500;28;20066;-50
2023/08/26 10:27:06;;;;;;;3.55;1.65;;;20.70;99.90;;;;;;5051739;28;20071;-49
2023/08/26 10:29:35;;;;;;;3.60;1.60;;;20.60;99.90;;;;;;5045719;28;20029;-51
2023/08/26 10:32:18;;;;;;;1.50;1.40;;;20.50;99.90;;;;;;5035342;28;20025;-50
2023/08/26 10:34:59;;;;;;;1.42;1.33;;;20.80;99.90;;;;;;5035453;28;20072;-49
2023/08/26 10:37:26;;;;;;;1.40;1.30;;;21.10;99.90;;;;;;5035407;28;20021;-46
2023/08/26 10:39:52;;;;;;;1.88;1.50;;;21.20;99.90;;;;;;5046995;28;20393;-52
2023/08/26 10:42:19;;;;;;;1.70;1.30;;;21.20;99.90;;;;;;5055172;28;20055;-54
2023/08/26 10:44:55;;;;;;;1.57;1.23;;;21.10;99.90;;;;;;5055246;28;20067;-47
2023/08/26 10:47:45;;;;;;;3.53;1.30;;;21.00;99.90;;;;;;5053246;28;20481;-49
2023/08/26 10:50:34;;;;;;;2.15;1.20;;;21.00;99.90;;;;;;5053992;28;20470;-51
2023/08/26 10:53:12;;;;;;;3.15;1.40;;;21.20;99.90;;;;;;5053150;28;20066;-53
2023/08/26 10:55:38;;;;;;;2.38;1.15;;;21.50;99.90;;;;;;5035351;28;20025;-51
2023/08/26 10:58:06;;;;;;;1.27;1.15;;;21.90;99.90;;;;;;5034449;28;20024;-51
2023/08/26 11:00:33;;;;;;;1.73;1.33;;;22.10;99.90;;;;;;5053574;28;20063;-50
2023/08/26 11:03:02;;;;;;;2.45;2.00;;;22.40;99.90;;;;;;5054173;28;20078;-50
2023/08/26 11:05:28;;;;;;;3.92;1.50;;;22.50;99.90;;;;;;5054681;28;20029;-51
2023/08/26 11:07:56;;;;;;;3.83;1.33;;;22.60;99.90;;;;;;5031470;28;20028;-58
2023/08/26 11:10:28;;;;;;;3.25;1.08;;;22.70;99.90;;;;;;5052288;28;20032;-57
2023/08/26 11:12:54;;;;;;;2.78;0.90;;;22.70;99.90;;;;;;5054625;28;20020;-51
2023/08/26 11:15:20;;;;;;;3.60;1.50;;;22.80;99.90;;;;;;5060023;28;20362;-43
2023/08/26 11:17:48;;;;;;;3.67;1.25;;;22.70;99.90;;;;;;5056837;28;20051;-51
2023/08/26 11:20:16;;;;;;;1.77;1.00;;;22.50;99.90;;;;;;5050716;28;20036;-57
2023/08/26 11:22:45;;;;;;;5.47;1.45;;;22.40;99.90;;;;;;5035772;28;20036;-52
2023/08/26 11:25:15;;;;;;;5.35;1.23;;;22.20;99.90;;;;;;5053017;28;20069;-52
2023/08/26 11:27:41;;;;;;;4.43;2.25;;;22.10;99.90;;;;;;5054643;28;20021;-50
2023/08/26 11:30:09;;;;;;;0.75;0.75;;;22.10;99.90;;;;;;5052523;28;20040;-52
2023/08/26 11:32:39;;;;;;;3.15;0.82;;;22.30;99.90;;;;;;5054486;28;20500;-55
2023/08/26 11:35:07;;;;;;;1.23;0.75;;;22.50;99.90;;;;;;5051604;28;20025;-51
2023/08/26 11:37:42;;;;;;;;;;;22.70;99.90;;;;;;5047741;28;20115;-51
2023/08/26 11:40:09;;;;;;;2.63;0.98;;;22.70;99.90;;;;;;5049438;28;19912;-46
2023/08/26 11:42:35;;;;;;;2.90;0.98;;;22.40;99.90;;;;;;5054398;28;20083;-51
2023/08/26 11:45:00;;;;;;;2.70;0.70;;;22.10;99.90;;;;;;5054000;28;20021;-57
2023/08/26 11:47:26;;;;;;;3.15;1.20;;;21.80;99.90;;;;;;5054017;28;20513;-51
2023/08/26 11:49:55;;;;;;;2.08;1.13;;;21.50;99.90;;;;;;5050177;28;20497;-51
2023/08/26 11:52:34;;;;;;;3.10;1.00;;;21.20;99.90;;;;;;5051390;28;20511;-51
2023/08/26 11:55:03;;;;;;;1.70;1.55;;;20.80;99.90;;;;;;5051659;28;20033;-51
2023/08/26 11:57:31;;;;;;;1.80;1.00;;;20.70;99.90;;;;;;5049521;28;20017;-52
2023/08/26 12:00:25;;;;;;;2.38;2.00;;;20.50;99.90;;;;;;5051920;28;20513;-50
2023/08/26 12:02:53;;;;;;;2.55;1.35;;;20.30;99.90;;;;;;5040060;28;20087;-49
2023/08/26 12:05:19;;;;;;;5.57;1.30;;;20.10;99.90;;;;;;5050359;28;20079;-47
2023/08/26 12:07:56;;;;;;;4.30;1.45;;;20.10;99.90;;;;;;5052466;28;20022;-52
2023/08/26 12:10:23;;;;;;;8.13;1.63;;;20.10;99.90;;;;;;5051945;28;20017;-50
2023/08/26 12:12:49;;;;;;;2.28;1.20;;;20.20;99.90;;;;;;5053115;28;20470;-49
2023/08/26 12:15:18;;;;;;;1.30;1.20;;;20.50;99.90;;;;;;5053050;28;20013;-48
2023/08/26 12:17:49;;;;;;;1.52;1.38;;;20.90;99.90;;;;;;5050578;28;20028;-51
2023/08/26 12:20:30;;;;;;;2.92;1.73;;;21.40;99.90;;;;;;5033458;28;20025;-42
2023/08/26 12:22:59;;;;;;;2.22;1.60;;;21.50;99.90;;;;;;5050722;28;20025;-43
2023/08/26 12:25:27;;;;;;;2.28;1.80;;;21.30;99.90;;;;;;5043463;28;20025;-40
2023/08/26 12:28:12;;;;;;;10.02;1.85;;;21.20;99.90;;;;;;5046578;28;20042;-40
2023/08/26 12:30:39;;;;;;;3.13;1.75;;;21.40;99.90;;;;;;5033705;28;20025;-41
2023/08/26 12:33:06;;;;;;;1.75;1.50;;;21.80;99.90;;;;;;5052801;28;20021;-43
2023/08/26 12:35:33;;;;;;;6.22;1.63;;;22.10;99.90;;;;;;5049112;28;20021;-40
2023/08/26 12:38:02;;;;;;;1.02;1.02;;;22.40;99.90;;;;;;5053090;28;20112;-43
2023/08/26 12:40:34;;;;;;;5.03;1.30;;;22.40;99.90;;;;;;5052842;28;20398;-39
2023/08/26 12:43:02;;;;;;;2.08;1.23;;;22.60;99.90;;;;;;5053058;28;20096;-41
2023/08/26 12:45:33;;;;;;;4.28;1.42;;;22.50;99.90;;;;;;5051751;28;20029;-40
2023/08/26 12:47:59;;;;;;;1.10;0.90;;;22.30;99.90;;;;;;5052972;28;20416;-42